sensor_id;sensor_type;location;lat;lon;timestamp;temperature;humidity
58951;DHT22;44730;53.158;6.398;2023-04-01T00:01:39;9.80;99.90
58951;DHT22;44730;53.158;6.398;2023-04-01T00:04:06;9.90;99.90
58951;DHT22;44730;53.158;6.398;2023-04-01T00:06:32;9.80;99.90
58951;DHT22;44730;53.158;6.398;2023-04-01T00:08:58;9.90;99.90
58951;DHT22;44730;53.158;6.398;2023-04-01T00:11:25;9.80;99.90
58951;DHT22;44730;53.158;6.398;2023-04-01T00:13:52;9.80;99.90
58951;DHT22;44730;53.158;6.398;2023-04-01T00:16:18;9.90;99.90
58951;DHT22;44730;53.158;6.398;2023-04-01T00:18:44;9.80;99.90
58951;DHT22;44730;53.158;6.398;2023-04-01T00:21:12;9.90;99.90
58951;DHT22;44730;53.158;6.398;2023-04-01T00:23:38;9.80;99.90
58951;DHT22;44730;53.158;6.398;2023-04-01T00:26:04;9.90;99.90
58951;DHT22;44730;53.158;6.398;2023-04-01T00:28:30;9.80;99.90
58951;DHT22;44730;53.158;6.398;2023-04-01T00:30:57;9.90;99.90
58951;DHT22;44730;53.158;6.398;2023-04-01T00:33:22;9.80;99.90
58951;DHT22;44730;53.158;6.398;2023-04-01T00:35:48;9.90;99.90
58951;DHT22;44730;53.158;6.398;2023-04-01T00:38:14;9.90;99.90
58951;DHT22;44730;53.158;6.398;2023-04-01T00:40:45;9.80;99.90
58951;DHT22;44730;53.158;6.398;2023-04-01T00:43:17;9.80;99.90
58951;DHT22;44730;53.158;6.398;2023-04-01T00:45:47;9.90;99.90
58951;DHT22;44730;53.158;6.398;2023-04-01T00:48:28;9.90;99.90
58951;DHT22;44730;53.158;6.398;2023-04-01T00:51:09;9.80;99.90
58951;DHT22;44730;53.158;6.398;2023-04-01T00:53:39;9.80;99.90
58951;DHT22;44730;53.158;6.398;2023-04-01T00:56:11;9.80;99.90
58951;DHT22;44730;53.158;6.398;2023-04-01T00:58:41;9.80;99.90
58951;DHT22;44730;53.158;6.398;2023-04-01T01:01:08;9.80;99.90
58951;DHT22;44730;53.158;6.398;2023-04-01T01:03:35;9.80;99.90
58951;DHT22;44730;53.158;6.398;2023-04-01T01:06:08;9.80;99.90
58951;DHT22;44730;53.158;6.398;2023-04-01T01:11:32;9.80;99.90
58951;DHT22;44730;53.158;6.398;2023-04-01T01:14:26;9.80;99.90
58951;DHT22;44730;53.158;6.398;2023-04-01T01:17:06;9.80;99.90
58951;DHT22;44730;53.158;6.398;2023-04-01T01:19:53;9.70;99.90
58951;DHT22;44730;53.158;6.398;2023-04-01T01:22:32;9.70;99.90
58951;DHT22;44730;53.158;6.398;2023-04-01T01:27:27;9.70;99.90
58951;DHT22;44730;53.158;6.398;2023-04-01T01:30:11;9.70;99.90
58951;DHT22;44730;53.158;6.398;2023-04-01T01:33:01;9.70;99.90
58951;DHT22;44730;53.158;6.398;2023-04-01T01:38:18;9.70;99.90
58951;DHT22;44730;53.158;6.398;2023-04-01T01:40:49;9.70;99.90
58951;DHT22;44730;53.158;6.398;2023-04-01T01:43:21;9.70;99.90
58951;DHT22;44730;53.158;6.398;2023-04-01T01:45:52;9.70;99.90
58951;DHT22;44730;53.158;6.398;2023-04-01T01:48:20;9.80;99.90
58951;DHT22;44730;53.158;6.398;2023-04-01T01:50:46;9.70;99.90
58951;DHT22;44730;53.158;6.398;2023-04-01T01:53:14;9.70;99.90
58951;DHT22;44730;53.158;6.398;2023-04-01T01:55:45;9.80;99.90
58951;DHT22;44730;53.158;6.398;2023-04-01T01:58:19;9.70;99.90
58951;DHT22;44730;53.158;6.398;2023-04-01T02:00:53;9.70;99.90
58951;DHT22;44730;53.158;6.398;2023-04-01T02:03:21;9.70;99.90
58951;DHT22;44730;53.158;6.398;2023-04-01T02:05:48;9.70;99.90
58951;DHT22;44730;53.158;6.398;2023-04-01T02:08:28;9.70;99.90
58951;DHT22;44730;53.158;6.398;2023-04-01T02:11:00;9.70;99.90
58951;DHT22;44730;53.158;6.398;2023-04-01T02:13:50;9.70;99.90
58951;DHT22;44730;53.158;6.398;2023-04-01T02:16:26;9.70;99.90
58951;DHT22;44730;53.158;6.398;2023-04-01T02:18:53;9.60;99.90
58951;DHT22;44730;53.158;6.398;2023-04-01T02:21:22;9.60;99.90
58951;DHT22;44730;53.158;6.398;2023-04-01T02:23:53;9.60;99.90
58951;DHT22;44730;53.158;6.398;2023-04-01T02:26:20;9.60;99.90
58951;DHT22;44730;53.158;6.398;2023-04-01T02:28:46;9.60;99.90
58951;DHT22;44730;53.158;6.398;2023-04-01T02:31:14;9.60;99.90
58951;DHT22;44730;53.158;6.398;2023-04-01T02:33:40;9.60;99.90
58951;DHT22;44730;53.158;6.398;2023-04-01T02:36:11;9.60;99.90
58951;DHT22;44730;53.158;6.398;2023-04-01T02:38:37;9.60;99.90
58951;DHT22;44730;53.158;6.398;2023-04-01T02:41:03;9.60;99.90
58951;DHT22;44730;53.158;6.398;2023-04-01T02:43:30;9.70;99.90
58951;DHT22;44730;53.158;6.398;2023-04-01T02:45:56;9.60;99.90
58951;DHT22;44730;53.158;6.398;2023-04-01T02:48:21;9.70;99.90
58951;DHT22;44730;53.158;6.398;2023-04-01T02:50:47;9.60;99.90
58951;DHT22;44730;53.158;6.398;2023-04-01T02:53:13;9.60;99.90
58951;DHT22;44730;53.158;6.398;2023-04-01T02:55:39;9.60;99.90
58951;DHT22;44730;53.158;6.398;2023-04-01T02:58:04;9.60;99.90
58951;DHT22;44730;53.158;6.398;2023-04-01T03:00:30;9.60;99.90
58951;DHT22;44730;53.158;6.398;2023-04-01T03:02:56;9.70;99.90
58951;DHT22;44730;53.158;6.398;2023-04-01T03:05:22;9.70;99.90
58951;DHT22;44730;53.158;6.398;2023-04-01T03:07:48;9.70;99.90
58951;DHT22;44730;53.158;6.398;2023-04-01T03:10:14;9.60;99.90
58951;DHT22;44730;53.158;6.398;2023-04-01T03:12:40;9.70;99.90
58951;DHT22;44730;53.158;6.398;2023-04-01T03:15:08;9.60;99.90
58951;DHT22;44730;53.158;6.398;2023-04-01T03:17:35;9.60;99.90
58951;DHT22;44730;53.158;6.398;2023-04-01T03:20:00;9.70;99.90
58951;DHT22;44730;53.158;6.398;2023-04-01T03:22:26;9.60;99.90
58951;DHT22;44730;53.158;6.398;2023-04-01T03:24:52;9.70;99.90
58951;DHT22;44730;53.158;6.398;2023-04-01T03:27:17;9.70;99.90
58951;DHT22;44730;53.158;6.398;2023-04-01T03:29:43;9.60;99.90
58951;DHT22;44730;53.158;6.398;2023-04-01T03:32:09;9.60;99.90
58951;DHT22;44730;53.158;6.398;2023-04-01T03:34:35;9.60;99.90
58951;DHT22;44730;53.158;6.398;2023-04-01T03:37:00;9.60;99.90
58951;DHT22;44730;53.158;6.398;2023-04-01T03:39:26;9.70;99.90
58951;DHT22;44730;53.158;6.398;2023-04-01T03:41:52;9.60;99.90
58951;DHT22;44730;53.158;6.398;2023-04-01T03:44:18;9.60;99.90
58951;DHT22;44730;53.158;6.398;2023-04-01T03:46:43;9.70;99.90
58951;DHT22;44730;53.158;6.398;2023-04-01T03:49:10;9.70;99.90
58951;DHT22;44730;53.158;6.398;2023-04-01T03:51:43;9.70;99.90
58951;DHT22;44730;53.158;6.398;2023-04-01T03:54:10;9.70;99.90
58951;DHT22;44730;53.158;6.398;2023-04-01T03:56:37;9.70;99.90
58951;DHT22;44730;53.158;6.398;2023-04-01T03:59:05;9.60;99.90
58951;DHT22;44730;53.158;6.398;2023-04-01T04:01:31;9.60;99.90
58951;DHT22;44730;53.158;6.398;2023-04-01T04:03:57;9.60;99.90
58951;DHT22;44730;53.158;6.398;2023-04-01T04:06:24;9.60;99.90
58951;DHT22;44730;53.158;6.398;2023-04-01T04:08:50;9.70;99.90
58951;DHT22;44730;53.158;6.398;2023-04-01T04:11:16;9.60;99.90
58951;DHT22;44730;53.158;6.398;2023-04-01T04:13:43;9.60;99.90
58951;DHT22;44730;53.158;6.398;2023-04-01T04:16:09;9.60;99.90
58951;DHT22;44730;53.158;6.398;2023-04-01T04:18:36;9.60;99.90
58951;DHT22;44730;53.158;6.398;2023-04-01T04:21:03;9.70;99.90
58951;DHT22;44730;53.158;6.398;2023-04-01T04:23:29;9.60;99.90
58951;DHT22;44730;53.158;6.398;2023-04-01T04:26:08;9.60;99.90
58951;DHT22;44730;53.158;6.398;2023-04-01T04:28:34;9.70;99.90
58951;DHT22;44730;53.158;6.398;2023-04-01T04:31:00;9.60;99.90
58951;DHT22;44730;53.158;6.398;2023-04-01T04:33:27;9.70;99.90
58951;DHT22;44730;53.158;6.398;2023-04-01T04:35:56;9.60;99.90
58951;DHT22;44730;53.158;6.398;2023-04-01T04:38:22;9.70;99.90
58951;DHT22;44730;53.158;6.398;2023-04-01T04:40:54;9.60;99.90
58951;DHT22;44730;53.158;6.398;2023-04-01T04:43:20;9.60;99.90
58951;DHT22;44730;53.158;6.398;2023-04-01T04:45:46;9.60;99.90
58951;DHT22;44730;53.158;6.398;2023-04-01T04:48:13;9.50;99.90
58951;DHT22;44730;53.158;6.398;2023-04-01T04:50:49;9.60;99.90
58951;DHT22;44730;53.158;6.398;2023-04-01T04:53:17;9.60;99.90
58951;DHT22;44730;53.158;6.398;2023-04-01T04:55:45;9.60;99.90
58951;DHT22;44730;53.158;6.398;2023-04-01T04:58:11;9.60;99.90
58951;DHT22;44730;53.158;6.398;2023-04-01T05:00:36;9.60;99.90
58951;DHT22;44730;53.158;6.398;2023-04-01T05:03:02;9.60;99.90
58951;DHT22;44730;53.158;6.398;2023-04-01T05:05:28;9.60;99.90
58951;DHT22;44730;53.158;6.398;2023-04-01T05:07:53;9.60;99.90
58951;DHT22;44730;53.158;6.398;2023-04-01T05:10:19;9.60;99.90
58951;DHT22;44730;53.158;6.398;2023-04-01T05:12:46;9.70;99.90
58951;DHT22;44730;53.158;6.398;2023-04-01T05:15:12;9.60;99.90
58951;DHT22;44730;53.158;6.398;2023-04-01T05:17:37;9.60;99.90
58951;DHT22;44730;53.158;6.398;2023-04-01T05:20:03;9.60;99.90
58951;DHT22;44730;53.158;6.398;2023-04-01T05:22:29;9.60;99.90
58951;DHT22;44730;53.158;6.398;2023-04-01T05:24:56;9.70;99.90
58951;DHT22;44730;53.158;6.398;2023-04-01T05:27:22;9.70;99.90
58951;DHT22;44730;53.158;6.398;2023-04-01T05:29:47;9.70;99.90
58951;DHT22;44730;53.158;6.398;2023-04-01T05:32:13;9.70;99.90
58951;DHT22;44730;53.158;6.398;2023-04-01T05:34:39;9.70;99.90
58951;DHT22;44730;53.158;6.398;2023-04-01T05:37:05;9.70;99.90
58951;DHT22;44730;53.158;6.398;2023-04-01T05:39:38;9.70;99.90
58951;DHT22;44730;53.158;6.398;2023-04-01T05:42:06;9.70;99.90
58951;DHT22;44730;53.158;6.398;2023-04-01T05:44:32;9.70;99.90
58951;DHT22;44730;53.158;6.398;2023-04-01T05:46:57;9.70;99.90
58951;DHT22;44730;53.158;6.398;2023-04-01T05:49:23;9.70;99.90
58951;DHT22;44730;53.158;6.398;2023-04-01T05:51:49;9.70;99.90
58951;DHT22;44730;53.158;6.398;2023-04-01T05:54:15;9.60;99.90
58951;DHT22;44730;53.158;6.398;2023-04-01T05:56:40;9.60;99.90
58951;DHT22;44730;53.158;6.398;2023-04-01T05:59:06;9.70;99.90
58951;DHT22;44730;53.158;6.398;2023-04-01T06:01:32;9.70;99.90
58951;DHT22;44730;53.158;6.398;2023-04-01T06:03:57;9.70;99.90
58951;DHT22;44730;53.158;6.398;2023-04-01T06:06:25;9.60;99.90
58951;DHT22;44730;53.158;6.398;2023-04-01T06:08:52;9.70;99.90
58951;DHT22;44730;53.158;6.398;2023-04-01T06:11:27;9.70;99.90
58951;DHT22;44730;53.158;6.398;2023-04-01T06:25:29;9.70;99.90
58951;DHT22;44730;53.158;6.398;2023-04-01T06:30:50;9.70;99.90
58951;DHT22;44730;53.158;6.398;2023-04-01T06:36:32;9.70;99.90
58951;DHT22;44730;53.158;6.398;2023-04-01T06:45:01;9.70;99.90
58951;DHT22;44730;53.158;6.398;2023-04-01T06:50:34;9.90;99.90
58951;DHT22;44730;53.158;6.398;2023-04-01T06:55:55;10.00;99.90
58951;DHT22;44730;53.158;6.398;2023-04-01T07:01:29;10.20;99.90
58951;DHT22;44730;53.158;6.398;2023-04-01T07:04:14;10.10;99.90
58951;DHT22;44730;53.158;6.398;2023-04-01T07:06:53;10.20;99.90
58951;DHT22;44730;53.158;6.398;2023-04-01T07:09:39;10.30;99.90
58951;DHT22;44730;53.158;6.398;2023-04-01T07:14:50;10.30;99.90
58951;DHT22;44730;53.158;6.398;2023-04-01T07:17:27;10.40;99.90
58951;DHT22;44730;53.158;6.398;2023-04-01T07:22:44;10.40;99.90
58951;DHT22;44730;53.158;6.398;2023-04-01T07:25:20;10.30;99.90
58951;DHT22;44730;53.158;6.398;2023-04-01T07:27:46;10.40;99.90
58951;DHT22;44730;53.158;6.398;2023-04-01T07:30:15;10.40;99.90
58951;DHT22;44730;53.158;6.398;2023-04-01T07:32:51;10.50;99.90
58951;DHT22;44730;53.158;6.398;2023-04-01T07:49:20;10.60;99.90
58951;DHT22;44730;53.158;6.398;2023-04-01T07:51:59;10.60;99.90
58951;DHT22;44730;53.158;6.398;2023-04-01T07:54:32;10.70;99.90
58951;DHT22;44730;53.158;6.398;2023-04-01T08:00:56;10.60;99.90
58951;DHT22;44730;53.158;6.398;2023-04-01T08:08:36;10.60;99.90
58951;DHT22;44730;53.158;6.398;2023-04-01T08:14:03;10.50;99.90
58951;DHT22;44730;53.158;6.398;2023-04-01T08:21:38;10.50;99.90
58951;DHT22;44730;53.158;6.398;2023-04-01T08:24:22;10.50;99.90
58951;DHT22;44730;53.158;6.398;2023-04-01T08:26:55;10.50;99.90
58951;DHT22;44730;53.158;6.398;2023-04-01T08:29:30;10.50;99.90
58951;DHT22;44730;53.158;6.398;2023-04-01T08:32:19;10.60;99.90
58951;DHT22;44730;53.158;6.398;2023-04-01T08:35:11;10.60;99.90
58951;DHT22;44730;53.158;6.398;2023-04-01T08:37:40;10.60;99.90
58951;DHT22;44730;53.158;6.398;2023-04-01T08:43:22;10.80;99.90
58951;DHT22;44730;53.158;6.398;2023-04-01T08:48:43;10.90;99.90
58951;DHT22;44730;53.158;6.398;2023-04-01T08:54:19;11.10;99.90
58951;DHT22;44730;53.158;6.398;2023-04-01T08:56:57;11.20;99.90
58951;DHT22;44730;53.158;6.398;2023-04-01T09:05:43;11.30;99.90
58951;DHT22;44730;53.158;6.398;2023-04-01T09:08:33;11.40;99.90
58951;DHT22;44730;53.158;6.398;2023-04-01T09:21:49;11.60;99.90
58951;DHT22;44730;53.158;6.398;2023-04-01T09:32:27;11.20;99.90
58951;DHT22;44730;53.158;6.398;2023-04-01T09:35:05;10.90;99.90
58951;DHT22;44730;53.158;6.398;2023-04-01T09:37:54;10.80;99.90
58951;DHT22;44730;53.158;6.398;2023-04-01T09:40:45;10.70;99.90
58951;DHT22;44730;53.158;6.398;2023-04-01T09:43:26;10.50;99.90
58951;DHT22;44730;53.158;6.398;2023-04-01T10:00:15;10.40;99.90
58951;DHT22;44730;53.158;6.398;2023-04-01T10:11:10;10.40;99.90
58951;DHT22;44730;53.158;6.398;2023-04-01T10:39:34;10.40;99.90
58951;DHT22;44730;53.158;6.398;2023-04-01T10:42:20;10.40;99.90
58951;DHT22;44730;53.158;6.398;2023-04-01T10:47:32;10.40;99.90
58951;DHT22;44730;53.158;6.398;2023-04-01T10:50:30;10.40;99.90
58951;DHT22;44730;53.158;6.398;2023-04-01T10:56:34;10.30;99.90
58951;DHT22;44730;53.158;6.398;2023-04-01T10:59:32;10.20;99.90
58951;DHT22;44730;53.158;6.398;2023-04-01T11:22:51;10.50;99.90
58951;DHT22;44730;53.158;6.398;2023-04-01T11:33:54;10.40;99.90
58951;DHT22;44730;53.158;6.398;2023-04-01T11:39:27;10.30;99.90
58951;DHT22;44730;53.158;6.398;2023-04-01T11:44:29;10.30;99.90
58951;DHT22;44730;53.158;6.398;2023-04-01T12:06:30;10.40;99.90
58951;DHT22;44730;53.158;6.398;2023-04-01T12:14:02;10.70;99.90
58951;DHT22;44730;53.158;6.398;2023-04-01T12:16:59;10.90;99.90
58951;DHT22;44730;53.158;6.398;2023-04-01T12:20:10;10.90;99.90
58951;DHT22;44730;53.158;6.398;2023-04-01T12:22:32;10.80;99.90
58951;DHT22;44730;53.158;6.398;2023-04-01T12:25:22;10.70;99.90
58951;DHT22;44730;53.158;6.398;2023-04-01T12:31:00;10.50;99.90
58951;DHT22;44730;53.158;6.398;2023-04-01T12:36:34;10.50;99.90
58951;DHT22;44730;53.158;6.398;2023-04-01T12:44:31;10.60;99.90
58951;DHT22;44730;53.158;6.398;2023-04-01T12:47:14;10.60;99.90
58951;DHT22;44730;53.158;6.398;2023-04-01T13:09:45;10.40;99.90
58951;DHT22;44730;53.158;6.398;2023-04-01T13:28:52;10.50;99.90
58951;DHT22;44730;53.158;6.398;2023-04-01T13:31:34;10.30;99.90
58951;DHT22;44730;53.158;6.398;2023-04-01T13:48:36;10.20;99.90
58951;DHT22;44730;53.158;6.398;2023-04-01T14:00:23;10.00;99.90
58951;DHT22;44730;53.158;6.398;2023-04-01T14:08:49;9.90;99.90
58951;DHT22;44730;53.158;6.398;2023-04-01T14:11:25;9.90;99.90
58951;DHT22;44730;53.158;6.398;2023-04-01T14:22:20;9.70;99.90
58951;DHT22;44730;53.158;6.398;2023-04-01T14:25:18;9.70;99.90
58951;DHT22;44730;53.158;6.398;2023-04-01T14:34:19;9.60;99.90
58951;DHT22;44730;53.158;6.398;2023-04-01T14:40:03;9.50;99.90
58951;DHT22;44730;53.158;6.398;2023-04-01T14:50:45;9.40;99.90
58951;DHT22;44730;53.158;6.398;2023-04-01T14:53:36;9.40;99.90
58951;DHT22;44730;53.158;6.398;2023-04-01T14:56:04;9.40;99.90
58951;DHT22;44730;53.158;6.398;2023-04-01T14:58:47;9.30;99.90
58951;DHT22;44730;53.158;6.398;2023-04-01T15:04:23;9.20;99.90
58951;DHT22;44730;53.158;6.398;2023-04-01T15:09:55;9.10;99.90
58951;DHT22;44730;53.158;6.398;2023-04-01T15:12:41;9.10;99.90
58951;DHT22;44730;53.158;6.398;2023-04-01T15:18:09;8.90;99.90
58951;DHT22;44730;53.158;6.398;2023-04-01T15:20:41;8.80;99.90
58951;DHT22;44730;53.158;6.398;2023-04-01T15:26:42;8.70;99.90
58951;DHT22;44730;53.158;6.398;2023-04-01T15:29:28;8.80;99.90
58951;DHT22;44730;53.158;6.398;2023-04-01T15:32:57;8.70;99.90
58951;DHT22;44730;53.158;6.398;2023-04-01T15:41:14;8.50;99.90
58951;DHT22;44730;53.158;6.398;2023-04-01T15:43:51;8.60;99.90
58951;DHT22;44730;53.158;6.398;2023-04-01T15:46:43;8.50;99.90
58951;DHT22;44730;53.158;6.398;2023-04-01T15:52:03;8.40;99.90
58951;DHT22;44730;53.158;6.398;2023-04-01T15:58:04;8.30;99.90
58951;DHT22;44730;53.158;6.398;2023-04-01T16:00:41;8.30;99.90
58951;DHT22;44730;53.158;6.398;2023-04-01T16:06:07;8.20;99.90
58951;DHT22;44730;53.158;6.398;2023-04-01T16:11:57;8.10;99.90
58951;DHT22;44730;53.158;6.398;2023-04-01T16:17:11;8.10;99.90
58951;DHT22;44730;53.158;6.398;2023-04-01T16:25:07;8.00;99.90
58951;DHT22;44730;53.158;6.398;2023-04-01T16:27:50;7.90;99.90
58951;DHT22;44730;53.158;6.398;2023-04-01T16:33:31;7.80;99.90
58951;DHT22;44730;53.158;6.398;2023-04-01T16:41:39;7.70;99.90
58951;DHT22;44730;53.158;6.398;2023-04-01T16:47:07;7.60;99.90
58951;DHT22;44730;53.158;6.398;2023-04-01T16:49:51;7.50;99.90
58951;DHT22;44730;53.158;6.398;2023-04-01T16:52:40;7.50;99.90
58951;DHT22;44730;53.158;6.398;2023-04-01T16:55:16;7.50;99.90
58951;DHT22;44730;53.158;6.398;2023-04-01T16:57:50;7.50;99.90
58951;DHT22;44730;53.158;6.398;2023-04-01T17:00:26;7.50;99.90
58951;DHT22;44730;53.158;6.398;2023-04-01T17:03:11;7.40;99.90
58951;DHT22;44730;53.158;6.398;2023-04-01T17:05:49;7.30;99.90
58951;DHT22;44730;53.158;6.398;2023-04-01T17:11:09;7.40;99.90
58951;DHT22;44730;53.158;6.398;2023-04-01T17:13:58;7.20;99.90
58951;DHT22;44730;53.158;6.398;2023-04-01T17:16:49;7.30;99.90
58951;DHT22;44730;53.158;6.398;2023-04-01T17:19:40;7.20;99.90
58951;DHT22;44730;53.158;6.398;2023-04-01T17:22:31;7.20;99.90
58951;DHT22;44730;53.158;6.398;2023-04-01T17:28:19;7.10;99.90
58951;DHT22;44730;53.158;6.398;2023-04-01T17:31:51;7.10;99.90
58951;DHT22;44730;53.158;6.398;2023-04-01T17:37:00;7.00;99.90
58951;DHT22;44730;53.158;6.398;2023-04-01T17:45:44;7.00;99.90
58951;DHT22;44730;53.158;6.398;2023-04-01T17:51:07;6.90;99.90
58951;DHT22;44730;53.158;6.398;2023-04-01T17:53:54;7.00;99.90
58951;DHT22;44730;53.158;6.398;2023-04-01T17:56:39;6.90;99.90
58951;DHT22;44730;53.158;6.398;2023-04-01T17:59:28;6.90;99.90
58951;DHT22;44730;53.158;6.398;2023-04-01T18:07:29;6.80;99.90
58951;DHT22;44730;53.158;6.398;2023-04-01T18:10:11;6.80;99.90
58951;DHT22;44730;53.158;6.398;2023-04-01T18:12:58;6.80;99.90
58951;DHT22;44730;53.158;6.398;2023-04-01T18:26:18;6.70;99.90
58951;DHT22;44730;53.158;6.398;2023-04-01T18:32:12;6.60;99.90
58951;DHT22;44730;53.158;6.398;2023-04-01T18:38:27;6.60;99.90
58951;DHT22;44730;53.158;6.398;2023-04-01T18:40:32;6.60;99.90
58951;DHT22;44730;53.158;6.398;2023-04-01T18:43:09;6.60;99.90
58951;DHT22;44730;53.158;6.398;2023-04-01T18:45:45;6.60;99.90
58951;DHT22;44730;53.158;6.398;2023-04-01T18:48:57;6.60;99.90
58951;DHT22;44730;53.158;6.398;2023-04-01T18:51:50;6.50;99.90
58951;DHT22;44730;53.158;6.398;2023-04-01T18:57:20;6.50;99.90
58951;DHT22;44730;53.158;6.398;2023-04-01T18:59:48;6.40;99.90
58951;DHT22;44730;53.158;6.398;2023-04-01T19:07:41;6.30;99.90
58951;DHT22;44730;53.158;6.398;2023-04-01T19:13:16;6.30;99.90
58951;DHT22;44730;53.158;6.398;2023-04-01T19:21:45;6.30;99.90
58951;DHT22;44730;53.158;6.398;2023-04-01T19:42:52;6.10;99.90
58951;DHT22;44730;53.158;6.398;2023-04-01T19:45:29;6.10;99.90
58951;DHT22;44730;53.158;6.398;2023-04-01T19:51:02;6.00;99.90
58951;DHT22;44730;53.158;6.398;2023-04-01T19:56:23;5.90;99.90
58951;DHT22;44730;53.158;6.398;2023-04-01T20:04:49;5.80;99.90
58951;DHT22;44730;53.158;6.398;2023-04-01T20:10:04;5.80;99.90
58951;DHT22;44730;53.158;6.398;2023-04-01T20:12:40;5.80;99.90
58951;DHT22;44730;53.158;6.398;2023-04-01T20:15:36;5.90;99.90
58951;DHT22;44730;53.158;6.398;2023-04-01T20:20:40;5.80;99.90
58951;DHT22;44730;53.158;6.398;2023-04-01T20:25:52;5.70;99.90
58951;DHT22;44730;53.158;6.398;2023-04-01T20:28:25;5.70;99.90
58951;DHT22;44730;53.158;6.398;2023-04-01T20:31:23;5.70;99.90
58951;DHT22;44730;53.158;6.398;2023-04-01T20:34:19;5.70;99.90
58951;DHT22;44730;53.158;6.398;2023-04-01T20:43:00;5.60;99.90
58951;DHT22;44730;53.158;6.398;2023-04-01T20:51:09;5.60;99.90
58951;DHT22;44730;53.158;6.398;2023-04-01T20:58:59;5.60;99.90
58951;DHT22;44730;53.158;6.398;2023-04-01T21:04:22;5.50;99.90
58951;DHT22;44730;53.158;6.398;2023-04-01T21:07:20;5.50;99.90
58951;DHT22;44730;53.158;6.398;2023-04-01T21:09:51;5.50;99.90
58951;DHT22;44730;53.158;6.398;2023-04-01T21:12:34;5.50;99.90
58951;DHT22;44730;53.158;6.398;2023-04-01T21:20:46;5.40;99.90
58951;DHT22;44730;53.158;6.398;2023-04-01T21:29:08;5.40;99.90
58951;DHT22;44730;53.158;6.398;2023-04-01T21:34:42;5.30;99.90
58951;DHT22;44730;53.158;6.398;2023-04-01T21:40:17;5.30;99.90
58951;DHT22;44730;53.158;6.398;2023-04-01T21:43:06;5.30;99.90
58951;DHT22;44730;53.158;6.398;2023-04-01T21:51:23;5.30;99.90
58951;DHT22;44730;53.158;6.398;2023-04-01T21:57:16;5.20;99.90
58951;DHT22;44730;53.158;6.398;2023-04-01T22:03:15;5.20;99.90
58951;DHT22;44730;53.158;6.398;2023-04-01T22:09:18;5.10;99.90
58951;DHT22;44730;53.158;6.398;2023-04-01T22:11:56;5.20;99.90
58951;DHT22;44730;53.158;6.398;2023-04-01T22:17:03;5.20;99.90
58951;DHT22;44730;53.158;6.398;2023-04-01T22:19:49;5.10;99.90
58951;DHT22;44730;53.158;6.398;2023-04-01T22:25:25;5.10;99.90
58951;DHT22;44730;53.158;6.398;2023-04-01T22:31:00;5.10;99.90
58951;DHT22;44730;53.158;6.398;2023-04-01T22:39:09;5.00;99.90
58951;DHT22;44730;53.158;6.398;2023-04-01T22:50:25;4.90;99.90
58951;DHT22;44730;53.158;6.398;2023-04-01T22:53:18;5.00;99.90
58951;DHT22;44730;53.158;6.398;2023-04-01T22:55:50;4.90;99.90
58951;DHT22;44730;53.158;6.398;2023-04-01T22:58:38;4.90;99.90
58951;DHT22;44730;53.158;6.398;2023-04-01T23:01:10;4.80;99.90
58951;DHT22;44730;53.158;6.398;2023-04-01T23:03:49;4.80;99.90
58951;DHT22;44730;53.158;6.398;2023-04-01T23:06:20;4.90;99.90
58951;DHT22;44730;53.158;6.398;2023-04-01T23:09:08;5.20;99.90
58951;DHT22;44730;53.158;6.398;2023-04-01T23:11:57;5.10;99.90
58951;DHT22;44730;53.158;6.398;2023-04-01T23:14:28;4.60;99.90
58951;DHT22;44730;53.158;6.398;2023-04-01T23:17:16;4.60;99.90
58951;DHT22;44730;53.158;6.398;2023-04-01T23:20:12;4.50;99.90
58951;DHT22;44730;53.158;6.398;2023-04-01T23:23:02;4.50;99.90
58951;DHT22;44730;53.158;6.398;2023-04-01T23:36:09;4.30;99.90
58951;DHT22;44730;53.158;6.398;2023-04-01T23:38:38;4.30;99.90
58951;DHT22;44730;53.158;6.398;2023-04-01T23:41:08;4.30;99.90
58951;DHT22;44730;53.158;6.398;2023-04-01T23:43:43;4.30;99.90
58951;DHT22;44730;53.158;6.398;2023-04-01T23:46:11;4.30;99.90
58951;DHT22;44730;53.158;6.398;2023-04-01T23:48:43;4.30;99.90
58951;DHT22;44730;53.158;6.398;2023-04-01T23:51:22;4.20;99.90
58951;DHT22;44730;53.158;6.398;2023-04-01T23:56:51;4.20;99.90
58951;DHT22;44730;53.158;6.398;2023-04-01T23:59:40;4.10;99.90
